createdAt,value
2018-03-18T00:00:24.796Z,1004.07
2018-03-18T00:01:24.775Z,1004.05
2018-03-18T00:03:17.742Z,1004.36
2018-03-18T00:04:17.718Z,1004.12
2018-03-18T00:06:10.694Z,1004.09
2018-03-18T00:07:10.700Z,1004.34
2018-03-18T00:09:03.749Z,1004.11
2018-03-18T00:10:03.654Z,1004.16
2018-03-18T00:11:56.602Z,1004.17
2018-03-18T00:12:56.605Z,1004.08
2018-03-18T00:13:56.615Z,1004.11
2018-03-18T00:15:49.585Z,1004.11
2018-03-18T00:16:49.555Z,1004.26
2018-03-18T00:18:42.533Z,1004.10
2018-03-18T00:19:42.515Z,1004.11
2018-03-18T00:21:35.496Z,1004.12
2018-03-18T00:22:35.480Z,1004.19
2018-03-18T00:24:28.447Z,1004.33
2018-03-18T00:25:28.440Z,1004.25
2018-03-18T00:27:21.399Z,1004.14
2018-03-18T00:28:21.400Z,1004.22
2018-03-18T00:30:14.371Z,1004.36
2018-03-18T00:31:14.343Z,1004.19
2018-03-18T00:33:07.296Z,1004.23
2018-03-18T00:34:07.291Z,1004.24
2018-03-18T00:36:00.281Z,1004.27
2018-03-18T00:37:00.248Z,1004.12
2018-03-18T00:38:53.239Z,1004.22
2018-03-18T00:39:53.236Z,1004.39
2018-03-18T00:41:46.178Z,1004.24
2018-03-18T00:42:46.165Z,1004.42
2018-03-18T00:44:39.169Z,1004.33
2018-03-18T00:45:39.140Z,1004.29
2018-03-18T00:47:32.102Z,1004.36
2018-03-18T00:48:32.089Z,1004.36
2018-03-18T00:50:25.074Z,1004.41
2018-03-18T00:51:25.039Z,1004.34
2018-03-18T00:53:18.495Z,1004.38
2018-03-18T00:54:17.993Z,1004.38
2018-03-18T00:56:10.982Z,1004.47
2018-03-18T00:57:10.949Z,1004.31
2018-03-18T00:59:03.916Z,1004.29
2018-03-18T01:00:03.982Z,1004.22
2018-03-18T01:01:56.893Z,1004.23
2018-03-18T01:02:56.856Z,1004.27
2018-03-18T01:04:49.844Z,1004.35
2018-03-18T01:05:49.828Z,1004.29
2018-03-18T01:07:42.804Z,1004.36
2018-03-18T01:08:42.828Z,1004.25
2018-03-18T01:10:35.796Z,1004.34
2018-03-18T01:11:35.743Z,1004.26
2018-03-18T01:13:28.718Z,1004.30
2018-03-18T01:14:28.693Z,1004.23
2018-03-18T01:16:21.674Z,1004.25
2018-03-18T01:17:21.676Z,1004.27
2018-03-18T01:19:15.032Z,1004.28
2018-03-18T01:20:15.032Z,1004.33
2018-03-18T01:22:08.948Z,1004.33
2018-03-18T01:23:07.979Z,1004.48
2018-03-18T01:25:01.067Z,1004.40
2018-03-18T01:26:01.920Z,1004.46
2018-03-18T01:27:53.958Z,1004.32
2018-03-18T01:28:53.906Z,1004.28
2018-03-18T01:30:46.892Z,1004.41
2018-03-18T01:31:46.867Z,1004.33
2018-03-18T01:33:39.932Z,1004.30
2018-03-18T01:34:41.783Z,1004.35
2018-03-18T01:35:39.913Z,1004.27
2018-03-18T01:36:39.974Z,1004.30
2018-03-18T01:37:39.926Z,1004.36
2018-03-18T01:38:39.895Z,1004.39
2018-03-18T01:39:39.906Z,1004.29
2018-03-18T01:40:39.912Z,1004.20
2018-03-18T01:41:39.898Z,1004.20
2018-03-18T01:42:39.888Z,1004.22
2018-03-18T01:43:39.895Z,1004.10
2018-03-18T01:44:39.902Z,1004.22
2018-03-18T01:45:41.774Z,1004.13
2018-03-18T01:46:39.884Z,1004.24
2018-03-18T01:47:39.885Z,1004.15
2018-03-18T01:48:39.872Z,1004.19
2018-03-18T01:49:39.873Z,1004.25
2018-03-18T01:50:39.883Z,1004.15
2018-03-18T01:51:39.867Z,1004.30
2018-03-18T01:52:39.870Z,1004.22
2018-03-18T01:53:39.861Z,1004.19
2018-03-18T01:54:39.868Z,1004.23
2018-03-18T01:55:39.862Z,1004.24
2018-03-18T01:56:39.867Z,1004.22
2018-03-18T01:57:39.863Z,1004.24
2018-03-18T01:58:39.864Z,1004.13
2018-03-18T01:59:39.861Z,1004.12
2018-03-18T02:00:39.865Z,1004.21
2018-03-18T02:01:39.851Z,1004.05
2018-03-18T02:02:39.854Z,1004.13
2018-03-18T02:03:39.853Z,1004.06
2018-03-18T02:04:39.842Z,1004.13
2018-03-18T02:05:39.841Z,1004.12
2018-03-18T02:06:39.840Z,1004.21
2018-03-18T02:07:39.834Z,1004.03
2018-03-18T02:08:39.825Z,1004.11
2018-03-18T02:09:39.836Z,1004.10
2018-03-18T02:10:39.834Z,1004.16
2018-03-18T02:11:39.852Z,1004.15
2018-03-18T02:12:39.820Z,1004.15
2018-03-18T02:13:39.824Z,1004.10
2018-03-18T02:14:39.885Z,1004.05
2018-03-18T02:15:39.809Z,1004.12
2018-03-18T02:16:39.813Z,1004.05
2018-03-18T02:17:39.806Z,1004.12
2018-03-18T02:18:39.810Z,1004.02
2018-03-18T02:19:40.805Z,1004.13
2018-03-18T02:20:39.796Z,1004.09
2018-03-18T02:21:39.811Z,1004.12
2018-03-18T02:22:39.800Z,1004.09
2018-03-18T02:23:39.788Z,1004.24
2018-03-18T02:24:39.795Z,1004.10
2018-03-18T02:25:39.801Z,1004.18
2018-03-18T02:26:39.788Z,1004.13
2018-03-18T02:27:39.784Z,1004.11
2018-03-18T02:28:39.784Z,1004.09
2018-03-18T02:29:39.784Z,1004.20
2018-03-18T02:30:39.776Z,1004.25
2018-03-18T02:31:39.790Z,1004.08
2018-03-18T02:32:39.775Z,1004.05
2018-03-18T02:33:39.779Z,1004.15
2018-03-18T02:34:39.779Z,1004.16
2018-03-18T02:35:39.819Z,1004.11
2018-03-18T02:36:39.769Z,1004.03
2018-03-18T02:37:39.769Z,1004.10
2018-03-18T02:38:39.764Z,1004.24
2018-03-18T02:39:39.759Z,1004.09
2018-03-18T02:40:39.758Z,1004.11
2018-03-18T02:41:39.818Z,1004.01
2018-03-18T02:42:39.741Z,1004.03
2018-03-18T02:43:39.777Z,1004.09
2018-03-18T02:44:39.751Z,1004.10
2018-03-18T02:45:39.786Z,1004.00
2018-03-18T02:46:39.755Z,1003.99
2018-03-18T02:47:39.738Z,1004.04
2018-03-18T02:48:39.746Z,1004.10
2018-03-18T02:49:39.738Z,1003.94
2018-03-18T02:50:39.730Z,1003.87
2018-03-18T02:51:39.725Z,1004.09
2018-03-18T02:52:39.731Z,1003.93
2018-03-18T02:53:39.745Z,1003.91
2018-03-18T02:54:39.722Z,1003.87
2018-03-18T02:55:39.730Z,1003.95
2018-03-18T02:56:39.722Z,1003.94
2018-03-18T02:57:39.737Z,1004.37
2018-03-18T02:58:39.710Z,1003.94
2018-03-18T02:59:39.736Z,1003.92
2018-03-18T03:00:39.705Z,1003.95
2018-03-18T03:01:39.711Z,1003.91
2018-03-18T03:02:39.703Z,1003.89
2018-03-18T03:03:39.704Z,1003.99
2018-03-18T03:04:39.690Z,1004.16
2018-03-18T03:05:39.700Z,1003.98
2018-03-18T03:06:39.697Z,1003.93
2018-03-18T03:07:39.708Z,1003.94
2018-03-18T03:08:39.699Z,1003.87
2018-03-18T03:09:39.693Z,1003.82
2018-03-18T03:10:40.293Z,1004.03
2018-03-18T03:11:39.674Z,1004.04
2018-03-18T03:12:39.675Z,1004.06
2018-03-18T03:13:39.673Z,1003.94
2018-03-18T03:14:39.677Z,1003.94
2018-03-18T03:15:39.662Z,1003.94
2018-03-18T03:16:39.668Z,1003.98
2018-03-18T03:17:39.661Z,1003.94
2018-03-18T03:18:39.673Z,1003.99
2018-03-18T03:19:39.663Z,1003.99
2018-03-18T03:20:39.690Z,1003.91
2018-03-18T03:21:39.648Z,1004.17
2018-03-18T03:22:39.652Z,1003.96
2018-03-18T03:23:39.646Z,1004.07
2018-03-18T03:24:39.644Z,1004.05
2018-03-18T03:25:39.695Z,1004.00
2018-03-18T03:26:39.646Z,1003.96
2018-03-18T03:27:39.643Z,1004.12
2018-03-18T03:28:39.662Z,1003.98
2018-03-18T03:29:39.692Z,1003.96
2018-03-18T03:30:39.632Z,1003.90
2018-03-18T03:31:39.653Z,1004.06
2018-03-18T03:32:39.724Z,1003.98
2018-03-18T03:33:39.626Z,1003.99
2018-03-18T03:34:39.621Z,1004.01
2018-03-18T03:35:39.620Z,1003.95
2018-03-18T03:36:39.612Z,1004.10
2018-03-18T03:37:39.624Z,1004.00
2018-03-18T03:38:39.622Z,1004.27
2018-03-18T03:39:39.607Z,1004.14
2018-03-18T03:40:39.602Z,1003.97
2018-03-18T03:41:39.671Z,1004.10
2018-03-18T03:42:39.614Z,1004.02
2018-03-18T03:43:39.606Z,1004.07
2018-03-18T03:44:39.592Z,1004.05
2018-03-18T03:45:39.601Z,1004.06
2018-03-18T03:46:39.647Z,1004.16
2018-03-18T03:47:39.583Z,1004.08
2018-03-18T03:48:39.589Z,1004.17
2018-03-18T03:49:39.603Z,1004.15
2018-03-18T03:50:39.581Z,1004.16
2018-03-18T03:51:39.572Z,1004.20
2018-03-18T03:52:39.575Z,1004.29
2018-03-18T03:53:39.592Z,1004.13
2018-03-18T03:54:39.561Z,1004.25
2018-03-18T03:55:39.570Z,1004.16
2018-03-18T03:56:39.568Z,1004.20
2018-03-18T03:57:39.568Z,1004.21
2018-03-18T03:58:39.553Z,1004.21
2018-03-18T03:59:39.554Z,1004.27
2018-03-18T04:00:39.550Z,1004.22
2018-03-18T04:01:39.558Z,1004.32
2018-03-18T04:02:39.544Z,1004.20
2018-03-18T04:03:39.557Z,1004.24
2018-03-18T04:04:39.545Z,1004.18
2018-03-18T04:05:39.554Z,1004.18
2018-03-18T04:06:39.539Z,1004.26
2018-03-18T04:07:39.548Z,1004.27
2018-03-18T04:08:40.301Z,1004.28
2018-03-18T04:09:39.530Z,1004.24
2018-03-18T04:10:39.527Z,1004.19
2018-03-18T04:11:39.534Z,1004.39
2018-03-18T04:12:39.521Z,1004.32
2018-03-18T04:13:39.534Z,1004.38
2018-03-18T04:14:39.577Z,1004.30
2018-03-18T04:15:39.531Z,1004.34
2018-03-18T04:16:39.576Z,1004.34
2018-03-18T04:17:39.522Z,1004.25
2018-03-18T04:18:39.507Z,1004.35
2018-03-18T04:19:39.500Z,1004.32
2018-03-18T04:20:39.506Z,1004.28
2018-03-18T04:21:39.496Z,1004.25
2018-03-18T04:22:39.502Z,1004.24
2018-03-18T04:23:39.488Z,1004.32
2018-03-18T04:24:41.298Z,1004.34
2018-03-18T04:25:39.493Z,1004.42
2018-03-18T04:26:39.487Z,1004.42
2018-03-18T04:27:39.493Z,1004.30
2018-03-18T04:28:39.501Z,1004.32
2018-03-18T04:29:39.479Z,1004.32
2018-03-18T04:30:39.473Z,1004.36
2018-03-18T04:31:39.473Z,1004.25
2018-03-18T04:32:39.477Z,1004.35
2018-03-18T04:33:39.473Z,1004.33
2018-03-18T04:34:39.471Z,1004.36
2018-03-18T04:35:39.459Z,1004.39
2018-03-18T04:36:39.567Z,1004.45
2018-03-18T04:37:39.455Z,1004.35
2018-03-18T04:38:39.478Z,1004.37
2018-03-18T04:39:40.321Z,1004.42
2018-03-18T04:40:39.462Z,1004.38
2018-03-18T04:41:39.445Z,1004.35
2018-03-18T04:42:39.451Z,1004.42
2018-03-18T04:43:39.441Z,1004.33
2018-03-18T04:44:39.446Z,1004.37
2018-03-18T04:45:39.437Z,1004.39
2018-03-18T04:46:39.426Z,1004.54
2018-03-18T04:47:39.446Z,1004.39
2018-03-18T04:48:39.465Z,1004.50
2018-03-18T04:49:39.443Z,1004.41
2018-03-18T04:50:39.431Z,1004.34
2018-03-18T04:51:39.421Z,1004.37
2018-03-18T04:52:39.411Z,1004.40
2018-03-18T04:53:39.437Z,1004.40
2018-03-18T04:54:39.412Z,1004.44
2018-03-18T04:55:39.399Z,1004.50
2018-03-18T04:56:41.297Z,1004.34
2018-03-18T04:57:39.420Z,1004.40
2018-03-18T04:58:39.409Z,1004.48
2018-03-18T04:59:39.406Z,1004.51
2018-03-18T05:00:39.379Z,1004.40
2018-03-18T05:01:39.390Z,1004.42
2018-03-18T05:02:39.391Z,1004.40
2018-03-18T05:03:39.379Z,1004.42
2018-03-18T05:04:39.378Z,1004.40
2018-03-18T05:05:39.370Z,1004.39
2018-03-18T05:06:39.369Z,1004.45
2018-03-18T05:07:39.369Z,1004.37
2018-03-18T05:08:40.178Z,1004.43
2018-03-18T05:09:40.019Z,1004.40
2018-03-18T05:10:39.367Z,1004.44
2018-03-18T05:11:39.363Z,1004.53
2018-03-18T05:12:39.349Z,1004.48
2018-03-18T05:13:39.353Z,1004.49
2018-03-18T05:14:39.361Z,1004.37
2018-03-18T05:15:39.348Z,1004.50
2018-03-18T05:16:39.341Z,1004.45
2018-03-18T05:17:39.347Z,1004.57
2018-03-18T05:18:39.475Z,1004.48
2018-03-18T05:19:39.330Z,1004.43
2018-03-18T05:20:39.336Z,1004.53
2018-03-18T05:21:39.330Z,1004.52
2018-03-18T05:22:39.334Z,1004.42
2018-03-18T05:23:39.318Z,1004.52
2018-03-18T05:24:39.320Z,1004.51
2018-03-18T05:25:39.308Z,1004.45
2018-03-18T05:26:39.317Z,1004.53
2018-03-18T05:27:39.323Z,1004.51
2018-03-18T05:28:39.324Z,1004.50
2018-03-18T05:29:39.306Z,1004.59
2018-03-18T05:30:39.312Z,1004.48
2018-03-18T05:31:39.307Z,1004.51
2018-03-18T05:32:39.315Z,1004.59
2018-03-18T05:33:39.307Z,1004.52
2018-03-18T05:34:39.329Z,1004.58
2018-03-18T05:35:39.291Z,1004.47
2018-03-18T05:36:39.282Z,1004.57
2018-03-18T05:37:39.280Z,1004.74
2018-03-18T05:38:39.303Z,1004.66
2018-03-18T05:39:39.382Z,1004.59
2018-03-18T05:40:39.307Z,1004.70
2018-03-18T05:41:39.275Z,1004.61
2018-03-18T05:42:39.266Z,1004.62
2018-03-18T05:43:39.378Z,1004.66
2018-03-18T05:44:39.297Z,1004.63
2018-03-18T05:45:39.259Z,1004.71
2018-03-18T05:46:39.251Z,1004.76
2018-03-18T05:47:39.244Z,1004.76
2018-03-18T05:48:39.259Z,1004.70
2018-03-18T05:49:39.249Z,1004.74
2018-03-18T05:50:39.351Z,1004.66
2018-03-18T05:51:39.241Z,1004.66
2018-03-18T05:52:39.243Z,1004.64
2018-03-18T05:53:39.237Z,1004.72
2018-03-18T05:54:39.241Z,1004.65
2018-03-18T05:55:39.220Z,1004.72
2018-03-18T05:56:39.229Z,1004.75
2018-03-18T05:57:39.215Z,1004.69
2018-03-18T05:58:39.225Z,1004.69
2018-03-18T05:59:39.215Z,1004.81
2018-03-18T06:00:39.211Z,1004.76
2018-03-18T06:01:39.260Z,1004.73
2018-03-18T06:02:39.224Z,1004.82
2018-03-18T06:03:39.214Z,1004.92
2018-03-18T06:04:39.212Z,1004.76
2018-03-18T06:05:39.200Z,1004.83
2018-03-18T06:06:39.195Z,1004.81
2018-03-18T06:07:39.202Z,1004.88
2018-03-18T06:08:39.190Z,1004.90
2018-03-18T06:09:39.192Z,1004.80
2018-03-18T06:10:39.184Z,1004.76
2018-03-18T06:11:39.222Z,1004.79
2018-03-18T06:12:39.188Z,1004.80
2018-03-18T06:13:39.176Z,1004.98
2018-03-18T06:14:39.181Z,1004.89
2018-03-18T06:15:39.180Z,1004.73
2018-03-18T06:16:39.180Z,1004.83
2018-03-18T06:17:39.181Z,1004.82
2018-03-18T06:18:39.156Z,1005.03
2018-03-18T06:19:39.169Z,1004.86
2018-03-18T06:20:39.215Z,1004.79
2018-03-18T06:21:39.151Z,1004.79
2018-03-18T06:22:39.156Z,1004.85
2018-03-18T06:23:39.170Z,1004.90
2018-03-18T06:24:39.161Z,1004.86
2018-03-18T06:25:39.150Z,1005.02
2018-03-18T06:26:39.142Z,1005.08
2018-03-18T06:27:39.151Z,1005.18
2018-03-18T06:28:39.156Z,1004.91
2018-03-18T06:29:39.128Z,1005.13
2018-03-18T06:30:39.127Z,1005.10
2018-03-18T06:31:39.140Z,1004.88
2018-03-18T06:32:39.124Z,1004.89
2018-03-18T06:33:39.122Z,1004.98
2018-03-18T06:34:39.124Z,1004.99
2018-03-18T06:35:39.129Z,1004.96
2018-03-18T06:36:39.149Z,1004.97
2018-03-18T06:37:39.130Z,1004.92
2018-03-18T06:38:39.112Z,1004.96
2018-03-18T06:39:39.133Z,1005.04
2018-03-18T06:40:39.097Z,1005.01
2018-03-18T06:41:39.105Z,1005.05
2018-03-18T06:42:39.095Z,1005.19
2018-03-18T06:43:39.098Z,1005.14
2018-03-18T06:44:39.203Z,1005.19
2018-03-18T06:45:39.106Z,1005.05
2018-03-18T06:46:39.816Z,1005.10
2018-03-18T06:47:39.091Z,1005.05
2018-03-18T06:48:39.081Z,1005.01
2018-03-18T06:49:39.089Z,1005.26
2018-03-18T06:50:39.107Z,1005.02
2018-03-18T06:51:39.078Z,1005.08
2018-03-18T06:52:39.078Z,1005.13
2018-03-18T06:53:39.073Z,1005.09
2018-03-18T06:54:39.093Z,1005.10
2018-03-18T06:55:39.143Z,1005.18
2018-03-18T06:56:39.074Z,1005.23
2018-03-18T06:57:39.060Z,1005.25
2018-03-18T06:58:41.832Z,1005.08
2018-03-18T06:59:39.058Z,1005.23
2018-03-18T07:00:39.205Z,1005.22
2018-03-18T07:01:39.067Z,1005.28
2018-03-18T07:02:39.132Z,1005.27
2018-03-18T07:03:39.050Z,1005.28
2018-03-18T07:04:39.046Z,1005.13
2018-03-18T07:05:39.048Z,1005.28
2018-03-18T07:06:39.051Z,1005.29
2018-03-18T07:07:39.035Z,1005.25
2018-03-18T07:08:39.038Z,1005.39
2018-03-18T07:09:39.034Z,1005.21
2018-03-18T07:10:39.044Z,1005.27
2018-03-18T07:11:39.030Z,1005.29
2018-03-18T07:12:39.064Z,1005.33
2018-03-18T07:13:39.041Z,1005.27
2018-03-18T07:14:39.022Z,1005.33
2018-03-18T07:15:39.027Z,1005.37
2018-03-18T07:16:39.027Z,1005.39
2018-03-18T07:17:39.070Z,1005.52
2018-03-18T07:18:39.015Z,1005.49
2018-03-18T07:19:39.018Z,1005.49
2018-03-18T07:20:39.020Z,1005.55
2018-03-18T07:21:39.014Z,1005.47
2018-03-18T07:22:39.010Z,1005.43
2018-03-18T07:23:39.009Z,1005.46
2018-03-18T07:24:40.761Z,1005.56
2018-03-18T07:25:39.011Z,1005.63
2018-03-18T07:26:39.084Z,1005.51
2018-03-18T07:27:39.004Z,1005.45
2018-03-18T07:28:39.034Z,1005.50
2018-03-18T07:29:38.997Z,1005.58
2018-03-18T07:30:38.997Z,1005.50
2018-03-18T07:31:38.987Z,1005.54
2018-03-18T07:32:38.991Z,1005.48
2018-03-18T07:33:38.996Z,1005.57
2018-03-18T07:34:38.993Z,1005.53
2018-03-18T07:35:38.985Z,1005.56
2018-03-18T07:36:38.983Z,1005.44
2018-03-18T07:37:38.997Z,1005.54
2018-03-18T07:38:39.082Z,1005.55
2018-03-18T07:39:38.981Z,1005.60
2018-03-18T07:40:38.975Z,1005.58
2018-03-18T07:41:38.981Z,1005.78
2018-03-18T07:42:38.977Z,1005.63
2018-03-18T07:43:38.993Z,1005.51
2018-03-18T07:44:39.070Z,1005.60
2018-03-18T07:45:38.973Z,1005.51
2018-03-18T07:46:39.067Z,1005.60
2018-03-18T07:47:38.987Z,1005.55
2018-03-18T07:48:38.972Z,1005.71
2018-03-18T07:49:38.971Z,1005.60
2018-03-18T07:50:38.962Z,1005.63
2018-03-18T07:51:38.986Z,1005.56
2018-03-18T07:52:38.960Z,1005.62
2018-03-18T07:53:39.089Z,1005.56
2018-03-18T07:54:38.946Z,1005.87
2018-03-18T07:55:38.985Z,1005.78
2018-03-18T07:56:38.950Z,1005.79
2018-03-18T07:57:38.947Z,1005.88
2018-03-18T07:58:38.951Z,1005.95
2018-03-18T07:59:38.958Z,1005.69
2018-03-18T08:00:38.945Z,1005.71
2018-03-18T08:01:38.951Z,1005.91
2018-03-18T08:02:38.946Z,1005.63
2018-03-18T08:03:39.085Z,1005.70
2018-03-18T08:04:38.935Z,1005.73
2018-03-18T08:05:38.995Z,1005.92
2018-03-18T08:06:38.929Z,1005.77
2018-03-18T08:07:38.931Z,1005.92
2018-03-18T08:08:38.924Z,1005.81
2018-03-18T08:09:38.923Z,1005.77
2018-03-18T08:10:38.930Z,1005.89
2018-03-18T08:11:38.918Z,1005.79
2018-03-18T08:12:38.928Z,1005.94
2018-03-18T08:13:38.931Z,1005.86
2018-03-18T08:14:38.931Z,1005.93
2018-03-18T08:15:38.918Z,1005.95
2018-03-18T08:16:38.913Z,1005.82
2018-03-18T08:17:38.936Z,1005.85
2018-03-18T08:18:38.907Z,1005.88
2018-03-18T08:19:38.902Z,1005.86
2018-03-18T08:20:38.900Z,1005.89
2018-03-18T08:21:38.969Z,1006.04
2018-03-18T08:22:38.912Z,1006.11
2018-03-18T08:23:38.899Z,1006.11
2018-03-18T08:24:38.895Z,1005.93
2018-03-18T08:25:38.896Z,1006.03
2018-03-18T08:26:38.902Z,1006.01
2018-03-18T08:27:39.023Z,1005.99
2018-03-18T08:28:38.900Z,1006.02
2018-03-18T08:29:38.892Z,1006.24
2018-03-18T08:30:38.891Z,1006.08
2018-03-18T08:31:38.901Z,1006.04
2018-03-18T08:32:38.885Z,1006.13
2018-03-18T08:33:38.909Z,1005.93
2018-03-18T08:34:38.884Z,1006.17
2018-03-18T08:35:38.877Z,1006.04
2018-03-18T08:36:38.925Z,1006.17
2018-03-18T08:37:38.878Z,1006.04
2018-03-18T08:38:38.885Z,1005.99
2018-03-18T08:39:38.888Z,1005.98
2018-03-18T08:40:38.891Z,1005.89
2018-03-18T08:41:38.898Z,1006.05
2018-03-18T08:42:38.931Z,1006.01
2018-03-18T08:43:38.878Z,1006.03
2018-03-18T08:44:38.871Z,1006.10
2018-03-18T08:45:38.865Z,1006.06
2018-03-18T08:46:38.868Z,1006.04
2018-03-18T08:47:38.869Z,1006.18
2018-03-18T08:48:38.867Z,1006.43
2018-03-18T08:49:38.867Z,1006.14
2018-03-18T08:50:38.869Z,1006.12
2018-03-18T08:51:38.868Z,1006.14
2018-03-18T08:52:38.872Z,1006.11
2018-03-18T08:53:38.880Z,1006.35
2018-03-18T08:54:38.868Z,1006.05
2018-03-18T08:55:39.839Z,1006.23
2018-03-18T08:56:38.855Z,1006.26
2018-03-18T08:57:38.939Z,1006.04
2018-03-18T08:58:38.963Z,1005.98
2018-03-18T08:59:38.860Z,1006.22
2018-03-18T09:00:38.958Z,1006.08
2018-03-18T09:02:01.868Z,1006.12
2018-03-18T09:02:38.940Z,1006.04
2018-03-18T09:03:42.875Z,1006.07
2018-03-18T09:04:39.970Z,1006.13
2018-03-18T09:05:38.868Z,1006.13
2018-03-18T09:06:38.877Z,1006.06
2018-03-18T09:07:41.360Z,1005.94
2018-03-18T09:08:38.967Z,1006.24
2018-03-18T09:09:38.892Z,1006.09
2018-03-18T09:10:38.880Z,1006.17
2018-03-18T09:11:40.388Z,1006.09
2018-03-18T09:12:38.907Z,1006.08
2018-03-18T09:13:40.393Z,1006.19
2018-03-18T09:14:38.871Z,1006.16
2018-03-18T09:15:38.862Z,1006.11
2018-03-18T09:16:38.887Z,1006.08
2018-03-18T09:17:38.877Z,1006.06
2018-03-18T09:18:38.905Z,1006.12
2018-03-18T09:19:38.944Z,1006.15
2018-03-18T09:20:38.878Z,1006.19
2018-03-18T09:21:38.996Z,1006.12
2018-03-18T09:22:41.407Z,1006.27
2018-03-18T09:23:40.369Z,1006.20
2018-03-18T09:24:42.379Z,1006.19
2018-03-18T09:25:38.840Z,1006.06
2018-03-18T09:26:38.941Z,1006.19
2018-03-18T09:27:38.853Z,1006.16
2018-03-18T09:28:38.868Z,1006.10
2018-03-18T09:29:38.900Z,1006.26
2018-03-18T09:30:38.849Z,1006.22
2018-03-18T09:31:38.955Z,1006.20
2018-03-18T09:32:38.981Z,1006.18
2018-03-18T09:33:41.368Z,1006.31
2018-03-18T09:34:40.382Z,1006.27
2018-03-18T09:35:38.908Z,1006.30
2018-03-18T09:36:38.877Z,1006.28
2018-03-18T09:37:41.382Z,1006.42
2018-03-18T09:38:38.856Z,1006.34
2018-03-18T09:39:40.433Z,1006.23
2018-03-18T09:40:38.907Z,1006.33
2018-03-18T09:41:41.410Z,1006.40
2018-03-18T09:42:38.896Z,1006.40
2018-03-18T09:43:38.841Z,1006.44
2018-03-18T09:44:38.867Z,1006.36
2018-03-18T09:45:38.908Z,1006.43
2018-03-18T09:46:38.846Z,1006.37
2018-03-18T09:47:38.905Z,1006.41
2018-03-18T09:48:38.928Z,1006.40
2018-03-18T09:49:38.940Z,1006.48
2018-03-18T09:50:40.393Z,1006.55
2018-03-18T09:51:40.414Z,1006.40
2018-03-18T09:52:41.440Z,1006.43
2018-03-18T09:53:41.374Z,1006.40
2018-03-18T09:54:40.354Z,1006.73
2018-03-18T09:55:38.911Z,1006.59
2018-03-18T09:56:38.897Z,1006.55
2018-03-18T09:57:41.383Z,1006.67
2018-03-18T09:58:38.881Z,1006.60
2018-03-18T09:59:41.412Z,1006.47
2018-03-18T10:00:38.875Z,1006.42
2018-03-18T10:01:42.380Z,1006.42
2018-03-18T10:02:38.906Z,1006.44
2018-03-18T10:03:41.364Z,1006.48
2018-03-18T10:04:38.936Z,1006.60
2018-03-18T10:05:38.893Z,1006.47
2018-03-18T10:06:39.900Z,1006.65
2018-03-18T10:07:38.882Z,1006.62
2018-03-18T10:08:38.937Z,1006.60
2018-03-18T10:09:38.944Z,1006.73
2018-03-18T10:10:38.910Z,1006.75
2018-03-18T10:11:38.944Z,1006.69
2018-03-18T10:12:40.916Z,1006.76
2018-03-18T10:13:39.035Z,1006.73
2018-03-18T10:14:38.977Z,1006.56
2018-03-18T10:15:39.981Z,1006.64
2018-03-18T10:16:38.925Z,1006.62
2018-03-18T10:17:46.906Z,1006.68
2018-03-18T10:18:38.884Z,1006.73
2018-03-18T10:19:38.983Z,1006.70
2018-03-18T10:20:41.919Z,1006.80
2018-03-18T10:21:38.929Z,1007.25
2018-03-18T10:22:38.924Z,1006.69
2018-03-18T10:23:38.958Z,1006.81
2018-03-18T10:24:38.946Z,1006.82
2018-03-18T10:25:40.921Z,1006.57
2018-03-18T10:26:41.879Z,1006.53
2018-03-18T10:27:41.863Z,1006.61
2018-03-18T10:28:38.977Z,1006.92
2018-03-18T10:29:38.955Z,1006.56
2018-03-18T10:30:40.892Z,1006.69
2018-03-18T10:31:40.873Z,1006.54
2018-03-18T10:32:39.060Z,1006.60
2018-03-18T10:33:38.938Z,1006.52
2018-03-18T10:34:38.935Z,1006.64
2018-03-18T10:35:38.970Z,1006.65
2018-03-18T10:36:42.862Z,1006.54
2018-03-18T10:37:38.953Z,1006.67
2018-03-18T10:38:38.979Z,1006.64
2018-03-18T10:39:38.992Z,1006.83
2018-03-18T10:40:40.903Z,1006.57
2018-03-18T10:41:39.991Z,1006.53
2018-03-18T10:42:38.987Z,1006.67
2018-03-18T10:43:38.945Z,1006.48
2018-03-18T10:44:41.913Z,1006.42
2018-03-18T10:45:38.975Z,1006.58
2018-03-18T10:46:40.875Z,1006.63
2018-03-18T10:47:38.976Z,1006.60
2018-03-18T10:48:40.912Z,1006.59
2018-03-18T10:49:38.961Z,1006.78
2018-03-18T10:50:38.984Z,1006.75
2018-03-18T10:51:40.898Z,1006.51
2018-03-18T10:52:40.996Z,1006.58
2018-03-18T10:53:39.036Z,1006.67
2018-03-18T10:54:41.886Z,1006.63
2018-03-18T10:55:41.869Z,1006.64
2018-03-18T10:56:39.012Z,1006.59
2018-03-18T10:57:41.871Z,1006.59
2018-03-18T10:58:39.031Z,1006.60
2018-03-18T10:59:41.910Z,1006.38
2018-03-18T11:00:40.928Z,1006.53
2018-03-18T11:01:41.927Z,1006.43
2018-03-18T11:02:38.999Z,1006.52
2018-03-18T11:03:41.876Z,1006.55
2018-03-18T11:04:41.922Z,1006.54
2018-03-18T11:05:39.063Z,1006.60
2018-03-18T11:06:41.902Z,1006.51
2018-03-18T11:07:39.020Z,1006.46
2018-03-18T11:08:41.910Z,1006.59
2018-03-18T11:09:40.896Z,1006.70
2018-03-18T11:10:41.900Z,1006.45
2018-03-18T11:11:40.894Z,1006.58
2018-03-18T11:12:39.016Z,1006.73
2018-03-18T11:13:40.992Z,1006.60
2018-03-18T11:14:39.024Z,1006.48
2018-03-18T11:15:40.892Z,1006.46
2018-03-18T11:16:39.042Z,1006.59
2018-03-18T11:17:41.891Z,1006.75
2018-03-18T11:18:40.907Z,1006.61
2018-03-18T11:19:39.006Z,1006.49
2018-03-18T11:20:39.008Z,1006.61
2018-03-18T11:21:40.933Z,1006.70
2018-03-18T11:22:38.996Z,1006.85
2018-03-18T11:23:39.025Z,1007.16
2018-03-18T11:24:40.920Z,1006.89
2018-03-18T11:25:40.919Z,1006.80
2018-03-18T11:26:42.914Z,1006.70
2018-03-18T11:27:40.897Z,1006.52
2018-03-18T11:28:39.106Z,1006.73
2018-03-18T11:29:41.875Z,1006.79
2018-03-18T11:30:39.482Z,1006.67
2018-03-18T11:31:39.024Z,1006.59
2018-03-18T11:32:40.892Z,1006.62
2018-03-18T11:33:40.892Z,1006.89
2018-03-18T11:34:40.937Z,1006.54
2018-03-18T11:35:39.090Z,1006.44
2018-03-18T11:36:39.082Z,1006.58
2018-03-18T11:37:40.924Z,1006.60
2018-03-18T11:38:39.108Z,1006.41
2018-03-18T11:39:39.080Z,1006.75
2018-03-18T11:40:39.205Z,1006.47
2018-03-18T11:41:40.960Z,1006.36
2018-03-18T11:42:39.089Z,1006.48
2018-03-18T11:43:39.067Z,1006.31
2018-03-18T11:44:40.899Z,1006.33
2018-03-18T11:45:39.088Z,1006.40
2018-03-18T11:46:40.905Z,1006.35
2018-03-18T11:47:39.100Z,1006.37
2018-03-18T11:48:40.921Z,1006.35
2018-03-18T11:49:39.066Z,1006.51
2018-03-18T11:50:39.089Z,1006.45
2018-03-18T11:51:39.104Z,1006.56
2018-03-18T11:52:44.881Z,1006.41
2018-03-18T11:53:39.094Z,1006.55
2018-03-18T11:54:40.963Z,1006.39
2018-03-18T11:55:40.063Z,1006.57
2018-03-18T11:56:39.082Z,1006.42
2018-03-18T11:57:39.062Z,1006.44
2018-03-18T11:58:39.138Z,1006.67
2018-03-18T11:59:39.117Z,1006.51
2018-03-18T12:00:41.927Z,1006.54
2018-03-18T12:01:40.889Z,1006.81
2018-03-18T12:02:39.152Z,1006.60
2018-03-18T12:03:39.086Z,1006.64
2018-03-18T12:04:39.150Z,1006.32
2018-03-18T12:05:39.163Z,1006.24
2018-03-18T12:06:39.095Z,1006.23
2018-03-18T12:07:40.912Z,1006.41
2018-03-18T12:08:39.133Z,1006.07
2018-03-18T12:09:40.083Z,1006.20
2018-03-18T12:10:39.139Z,1006.11
2018-03-18T12:11:39.162Z,1006.30
2018-03-18T12:12:39.296Z,1006.20
2018-03-18T12:13:39.136Z,1006.25
2018-03-18T12:14:41.944Z,1006.21
2018-03-18T12:15:39.116Z,1006.10
2018-03-18T12:16:39.127Z,1006.11
2018-03-18T12:17:39.115Z,1006.24
2018-03-18T12:18:39.117Z,1006.03
2018-03-18T12:19:39.158Z,1006.20
2018-03-18T12:20:40.947Z,1006.24
2018-03-18T12:21:39.113Z,1006.07
2018-03-18T12:22:39.127Z,1006.19
2018-03-18T12:23:39.116Z,1006.23
2018-03-18T12:24:39.197Z,1006.17
2018-03-18T12:25:42.924Z,1006.10
2018-03-18T12:26:39.149Z,1006.09
2018-03-18T12:27:39.244Z,1006.30
2018-03-18T12:28:39.152Z,1006.13
2018-03-18T12:29:39.124Z,1006.08
2018-03-18T12:30:39.111Z,1006.13
2018-03-18T12:31:39.125Z,1006.07
2018-03-18T12:32:40.117Z,1006.13
2018-03-18T12:33:39.141Z,1006.16